createdAt,value
2023-01-29T00:00:23.144Z,101326.20
2023-01-29T00:03:17.058Z,101333.00
2023-01-29T00:05:50.253Z,101338.20
2023-01-29T00:08:23.303Z,101327.60
2023-01-29T00:11:01.662Z,101329.80
2023-01-29T00:13:35.715Z,101332.00
2023-01-29T00:16:09.453Z,101323.80
2023-01-29T00:18:44.883Z,101319.40
2023-01-29T00:21:20.022Z,101327.60
2023-01-29T00:23:55.579Z,101322.40
2023-01-29T00:26:29.617Z,101317.60
2023-01-29T00:29:02.867Z,101312.40
2023-01-29T00:31:36.552Z,101309.40
2023-01-29T00:34:09.657Z,101307.00
2023-01-29T00:36:45.103Z,101306.20
2023-01-29T00:39:29.417Z,101304.60
2023-01-29T00:42:27.423Z,101297.00
2023-01-29T00:45:00.489Z,101292.60
2023-01-29T00:47:34.664Z,101296.40
2023-01-29T00:50:11.719Z,101285.20
2023-01-29T00:52:45.057Z,101277.00
2023-01-29T00:55:18.104Z,101272.20
2023-01-29T00:57:52.018Z,101273.80
2023-01-29T01:00:26.196Z,101264.20
2023-01-29T01:03:08.126Z,101256.40
2023-01-29T01:05:42.903Z,101252.80
2023-01-29T01:08:34.060Z,101253.40
2023-01-29T01:11:09.297Z,101258.40
2023-01-29T01:13:42.345Z,101256.40
2023-01-29T01:16:17.523Z,101257.60
2023-01-29T01:18:50.618Z,101252.00
2023-01-29T01:21:23.863Z,101246.00
2023-01-29T01:23:56.858Z,101244.40
2023-01-29T01:26:29.902Z,101252.20
2023-01-29T01:29:03.294Z,101252.20
2023-01-29T01:31:36.400Z,101249.80
2023-01-29T01:34:09.459Z,101250.40
2023-01-29T01:36:42.469Z,101254.40
2023-01-29T01:39:15.581Z,101248.60
2023-01-29T01:41:48.768Z,101252.40
2023-01-29T01:45:10.517Z,101249.00
2023-01-29T01:47:48.328Z,101241.20
2023-01-29T01:50:26.959Z,101243.80
2023-01-29T01:53:06.216Z,101242.80
2023-01-29T01:55:43.368Z,101237.40
2023-01-29T01:58:25.032Z,101234.40
2023-01-29T02:00:58.642Z,101225.60
2023-01-29T02:03:52.124Z,101225.80
2023-01-29T02:06:42.726Z,101232.00
2023-01-29T02:09:35.642Z,101227.60
2023-01-29T02:12:13.114Z,101231.20
2023-01-29T02:14:47.275Z,101233.60
2023-01-29T02:17:22.479Z,101239.20
2023-01-29T02:20:09.892Z,101241.60
2023-01-29T02:23:16.220Z,101244.40
2023-01-29T02:26:08.028Z,101247.20
2023-01-29T02:28:50.384Z,101243.00
2023-01-29T02:31:32.889Z,101237.20
2023-01-29T02:34:20.832Z,101237.60
2023-01-29T02:37:03.536Z,101239.40
2023-01-29T02:39:43.944Z,101243.00
2023-01-29T02:42:27.503Z,101242.80
2023-01-29T02:45:07.249Z,101242.40
2023-01-29T02:47:49.805Z,101244.20
2023-01-29T02:50:30.833Z,101247.40
2023-01-29T02:53:09.626Z,101243.20
2023-01-29T02:55:47.968Z,101248.40
2023-01-29T02:58:27.029Z,101239.00
2023-01-29T03:01:05.972Z,101237.00
2023-01-29T03:03:44.950Z,101238.80
2023-01-29T03:06:23.641Z,101244.20
2023-01-29T03:09:01.009Z,101245.40
2023-01-29T03:11:41.646Z,101239.80
2023-01-29T03:14:18.269Z,101242.80
2023-01-29T03:16:54.553Z,101232.60
2023-01-29T03:19:44.777Z,101235.60
2023-01-29T03:22:27.485Z,101227.60
2023-01-29T03:25:20.592Z,101221.80
2023-01-29T03:28:15.821Z,101222.80
2023-01-29T03:31:12.099Z,101228.00
2023-01-29T03:33:53.253Z,101228.80
2023-01-29T03:36:38.397Z,101235.20
2023-01-29T03:39:13.336Z,101235.20
2023-01-29T03:41:55.063Z,101229.40
2023-01-29T03:44:37.339Z,101230.00
2023-01-29T03:47:21.577Z,101222.80
2023-01-29T03:50:03.732Z,101215.60
2023-01-29T03:52:46.399Z,101213.60
2023-01-29T03:55:25.764Z,101210.80
2023-01-29T03:58:04.959Z,101208.00
2023-01-29T04:00:43.107Z,101206.40
2023-01-29T04:03:22.288Z,101209.80
2023-01-29T04:06:10.156Z,101204.80
2023-01-29T04:08:56.389Z,101202.40
2023-01-29T04:11:30.814Z,101201.00
2023-01-29T04:14:04.141Z,101205.40
2023-01-29T04:16:41.281Z,101201.40
2023-01-29T04:19:31.993Z,101204.00
2023-01-29T04:22:14.085Z,101203.00
2023-01-29T04:24:49.569Z,101203.40
2023-01-29T04:27:33.958Z,101200.60
2023-01-29T04:30:22.452Z,101198.80
2023-01-29T04:33:10.385Z,101193.20
2023-01-29T04:36:02.260Z,101189.60
2023-01-29T04:38:48.855Z,101185.00
2023-01-29T04:41:30.149Z,101175.80
2023-01-29T04:44:11.023Z,101176.20
2023-01-29T04:46:54.157Z,101172.80
2023-01-29T04:49:39.437Z,101162.40
2023-01-29T04:52:18.445Z,101156.80
2023-01-29T04:55:02.708Z,101153.40
2023-01-29T04:57:43.502Z,101154.80
2023-01-29T05:00:24.125Z,101155.80
2023-01-29T05:02:57.931Z,101153.40
2023-01-29T05:05:31.569Z,101156.00
2023-01-29T05:08:06.168Z,101154.40
2023-01-29T05:10:40.235Z,101153.40
2023-01-29T05:13:15.701Z,101155.20
2023-01-29T05:15:53.856Z,101148.00
2023-01-29T05:18:27.036Z,101150.40
2023-01-29T05:21:02.667Z,101141.60
2023-01-29T05:23:35.808Z,101143.80
2023-01-29T05:26:09.263Z,101140.20
2023-01-29T05:28:42.600Z,101140.80
2023-01-29T05:31:15.597Z,101139.00
2023-01-29T05:33:48.843Z,101136.00
2023-01-29T05:36:22.335Z,101131.00
2023-01-29T05:38:55.364Z,101135.20
2023-01-29T05:41:28.459Z,101137.40
2023-01-29T05:44:01.413Z,101142.60
2023-01-29T05:46:34.472Z,101136.20
2023-01-29T05:49:07.852Z,101138.60
2023-01-29T05:51:40.980Z,101140.00
2023-01-29T05:54:16.311Z,101133.80
2023-01-29T05:56:49.528Z,101126.60
2023-01-29T05:59:22.837Z,101131.40
2023-01-29T06:01:56.002Z,101127.60
2023-01-29T06:04:29.208Z,101133.40
2023-01-29T06:07:03.590Z,101135.80
2023-01-29T06:09:36.719Z,101139.20
2023-01-29T06:12:10.402Z,101137.40
2023-01-29T06:14:43.581Z,101137.60
2023-01-29T06:17:16.639Z,101141.40
2023-01-29T06:19:49.983Z,101140.60
2023-01-29T06:22:22.980Z,101133.60
2023-01-29T06:24:55.931Z,101130.20
2023-01-29T06:27:29.040Z,101131.00
2023-01-29T06:30:02.028Z,101132.60
2023-01-29T06:32:35.145Z,101142.80
2023-01-29T06:35:10.365Z,101146.00
2023-01-29T06:37:43.336Z,101145.60
2023-01-29T06:40:18.170Z,101152.40
2023-01-29T06:42:51.448Z,101159.20
2023-01-29T06:45:24.528Z,101153.40
2023-01-29T06:47:59.911Z,101159.60
2023-01-29T06:50:34.197Z,101162.00
2023-01-29T06:53:07.334Z,101168.80
2023-01-29T06:55:40.379Z,101166.80
2023-01-29T06:58:14.972Z,101175.60
2023-01-29T07:00:48.442Z,101188.20
2023-01-29T07:03:21.750Z,101186.00
2023-01-29T07:05:57.875Z,101184.20
2023-01-29T07:08:30.956Z,101186.60
2023-01-29T07:11:05.369Z,101190.40
2023-01-29T07:13:38.473Z,101193.80
2023-01-29T07:16:13.167Z,101198.00
2023-01-29T07:18:46.196Z,101201.00
2023-01-29T07:21:19.219Z,101205.80
2023-01-29T07:23:52.472Z,101199.20
2023-01-29T07:26:25.607Z,101206.00
2023-01-29T07:28:58.599Z,101205.40
2023-01-29T07:31:31.778Z,101207.40
2023-01-29T07:34:05.019Z,101198.00
2023-01-29T07:36:38.427Z,101192.60
2023-01-29T07:39:11.539Z,101195.40
2023-01-29T07:41:44.663Z,101192.80
2023-01-29T07:44:22.158Z,101194.00
2023-01-29T07:46:55.527Z,101189.60
2023-01-29T07:49:28.637Z,101191.80
2023-01-29T07:52:01.773Z,101186.80
2023-01-29T07:54:35.312Z,101197.60
2023-01-29T07:57:08.588Z,101199.00
2023-01-29T07:59:41.719Z,101189.20
2023-01-29T08:02:15.201Z,101177.40
2023-01-29T08:04:48.304Z,101161.80
2023-01-29T08:07:21.344Z,101161.80
2023-01-29T08:09:54.452Z,101163.80
2023-01-29T08:12:27.487Z,101161.40
2023-01-29T08:15:00.682Z,101162.80
2023-01-29T08:17:33.719Z,101163.60
2023-01-29T08:20:08.778Z,101167.60
2023-01-29T08:22:41.850Z,101163.40
2023-01-29T08:25:15.501Z,101162.00
2023-01-29T08:27:48.509Z,101155.20
2023-01-29T08:30:21.934Z,101153.80
2023-01-29T08:32:55.051Z,101147.80
2023-01-29T08:35:28.806Z,101141.00
2023-01-29T08:38:04.716Z,101132.40
2023-01-29T08:40:38.925Z,101127.20
2023-01-29T08:43:14.998Z,101121.80
2023-01-29T08:45:48.487Z,101113.00
2023-01-29T08:48:21.623Z,101111.60
2023-01-29T08:50:54.959Z,101107.00
2023-01-29T08:53:27.989Z,101106.60
2023-01-29T08:56:01.576Z,101113.20
2023-01-29T08:58:34.712Z,101110.00
2023-01-29T09:01:15.365Z,101109.20
2023-01-29T09:03:48.384Z,101115.00
2023-01-29T09:06:21.467Z,101112.40
2023-01-29T09:08:54.597Z,101118.80
2023-01-29T09:11:27.831Z,101119.40
2023-01-29T09:14:01.189Z,101113.60
2023-01-29T09:16:34.283Z,101125.60
2023-01-29T09:19:08.468Z,101132.40
2023-01-29T09:21:41.476Z,101127.00
2023-01-29T09:24:14.649Z,101125.60
2023-01-29T09:26:47.716Z,101124.40
2023-01-29T09:29:21.119Z,101119.40
2023-01-29T09:31:54.265Z,101119.60
2023-01-29T09:34:27.460Z,101118.80
2023-01-29T09:37:00.592Z,101117.00
2023-01-29T09:39:33.807Z,101117.80
2023-01-29T09:42:13.640Z,101122.00
2023-01-29T09:45:01.572Z,101114.40
2023-01-29T09:47:37.318Z,101108.20
2023-01-29T09:50:20.206Z,101098.20
2023-01-29T09:52:59.400Z,101085.60
2023-01-29T09:55:36.767Z,101074.60
2023-01-29T09:58:18.362Z,101071.60
2023-01-29T10:01:02.272Z,101063.20
2023-01-29T10:03:52.397Z,101060.00
2023-01-29T10:06:44.755Z,101056.20
2023-01-29T10:10:12.664Z,101051.20
2023-01-29T10:13:04.305Z,101046.80
2023-01-29T10:15:54.789Z,101042.20
2023-01-29T10:18:54.711Z,101030.20
2023-01-29T10:21:54.357Z,101031.60
2023-01-29T10:24:40.202Z,101028.40
2023-01-29T10:27:21.889Z,101026.40
2023-01-29T10:29:57.565Z,101023.40
2023-01-29T10:32:32.486Z,101011.20
2023-01-29T10:35:15.584Z,101011.20
2023-01-29T10:37:49.180Z,101020.40
2023-01-29T10:40:30.947Z,101013.00
2023-01-29T10:43:13.997Z,101017.80
2023-01-29T10:45:54.050Z,101017.80
2023-01-29T10:49:01.937Z,101016.80
2023-01-29T10:51:55.618Z,101023.00
2023-01-29T10:54:46.398Z,101009.00
2023-01-29T10:57:36.952Z,101011.60
2023-01-29T11:00:20.692Z,101004.80
2023-01-29T11:02:54.779Z,100993.60
2023-01-29T11:05:35.632Z,100990.80
2023-01-29T11:08:17.001Z,100988.00
2023-01-29T11:10:56.728Z,100987.60
2023-01-29T11:13:35.415Z,100985.00
2023-01-29T11:16:11.563Z,100985.80
2023-01-29T11:18:57.842Z,100981.80
2023-01-29T11:21:32.525Z,100988.40
2023-01-29T11:24:17.702Z,100984.80
2023-01-29T11:26:53.252Z,100978.40
2023-01-29T11:29:48.134Z,100974.00
2023-01-29T11:32:34.088Z,100977.60
2023-01-29T11:35:21.416Z,100971.80
2023-01-29T11:37:54.565Z,100975.60
2023-01-29T11:40:44.988Z,100967.80
2023-01-29T11:43:34.418Z,100951.40
2023-01-29T11:46:14.307Z,100946.40
2023-01-29T11:48:52.248Z,100937.80
2023-01-29T11:51:30.352Z,100929.00
2023-01-29T11:54:06.843Z,100931.20
2023-01-29T11:56:44.166Z,100925.20
2023-01-29T11:59:35.153Z,100921.00
2023-01-29T12:02:37.765Z,100915.20
2023-01-29T12:05:18.413Z,100906.20
2023-01-29T12:07:55.283Z,100908.40
2023-01-29T12:10:38.735Z,100904.20
2023-01-29T12:13:30.962Z,100905.20
2023-01-29T12:16:23.925Z,100898.20
2023-01-29T12:19:06.403Z,100885.80
2023-01-29T12:21:47.579Z,100876.00
2023-01-29T12:24:36.964Z,100871.00
2023-01-29T12:27:18.893Z,100866.40
2023-01-29T12:29:57.965Z,100866.80
2023-01-29T12:32:42.471Z,100863.00
2023-01-29T12:35:22.733Z,100864.00
2023-01-29T12:38:02.131Z,100862.20
2023-01-29T12:40:40.175Z,100858.60
2023-01-29T12:43:20.176Z,100856.20
2023-01-29T12:45:58.540Z,100849.40
2023-01-29T12:48:35.821Z,100851.60
2023-01-29T12:51:18.548Z,100854.00
2023-01-29T12:53:57.640Z,100847.60
2023-01-29T12:56:37.165Z,100841.20
2023-01-29T12:59:21.654Z,100835.40
2023-01-29T13:01:58.104Z,100822.60
2023-01-29T13:04:41.279Z,100822.20
2023-01-29T13:07:19.122Z,100815.00
2023-01-29T13:09:58.722Z,100816.60
2023-01-29T13:12:32.556Z,100809.60
2023-01-29T13:15:08.225Z,100807.60
2023-01-29T13:17:46.018Z,100819.00
2023-01-29T13:20:24.702Z,100822.80
2023-01-29T13:23:00.535Z,100821.40
2023-01-29T13:25:33.741Z,100817.00
2023-01-29T13:28:07.237Z,100811.60
2023-01-29T13:30:40.998Z,100806.20
2023-01-29T13:33:25.393Z,100811.60
2023-01-29T13:36:03.041Z,100816.00
2023-01-29T13:38:37.779Z,100809.00
2023-01-29T13:41:12.435Z,100806.00
2023-01-29T13:43:50.419Z,100812.40
2023-01-29T13:46:24.369Z,100807.40
2023-01-29T13:49:01.199Z,100803.00
2023-01-29T13:51:39.101Z,100803.00
2023-01-29T13:54:23.088Z,100789.80
2023-01-29T13:57:04.019Z,100790.60
2023-01-29T13:59:58.061Z,100795.00
2023-01-29T14:02:33.099Z,100793.20
2023-01-29T14:05:43.962Z,100789.80
2023-01-29T14:08:45.019Z,100796.00
2023-01-29T14:11:39.133Z,100789.80
2023-01-29T14:15:06.795Z,100788.80
2023-01-29T14:17:41.566Z,100781.80
2023-01-29T14:20:27.683Z,100787.00
2023-01-29T14:23:04.824Z,100780.80
2023-01-29T14:25:41.535Z,100785.80
2023-01-29T14:28:26.318Z,100782.00
2023-01-29T14:31:00.369Z,100775.40
2023-01-29T14:33:43.413Z,100791.40
2023-01-29T14:36:19.250Z,100788.00
2023-01-29T14:38:54.601Z,100788.00
2023-01-29T14:41:32.796Z,100785.60
2023-01-29T14:44:57.152Z,100788.00
2023-01-29T14:48:18.429Z,100791.60
2023-01-29T14:50:59.424Z,100784.40
2023-01-29T14:53:55.941Z,100781.60
2023-01-29T14:56:36.751Z,100774.20
2023-01-29T14:59:22.355Z,100782.60
2023-01-29T15:02:00.030Z,100782.00
2023-01-29T15:04:39.877Z,100782.00
2023-01-29T15:07:31.234Z,100774.40
2023-01-29T15:10:21.972Z,100778.20
2023-01-29T15:13:02.859Z,100782.80
2023-01-29T15:15:43.890Z,100780.80
2023-01-29T15:18:28.821Z,100785.80
2023-01-29T15:21:15.052Z,100780.80
2023-01-29T15:23:49.297Z,100783.80
2023-01-29T15:26:27.168Z,100782.40
2023-01-29T15:29:04.521Z,100784.60
2023-01-29T15:31:42.745Z,100785.60
2023-01-29T15:34:16.039Z,100791.40
2023-01-29T15:36:50.958Z,100785.60
2023-01-29T15:39:27.975Z,100784.00
2023-01-29T15:42:23.617Z,100783.20
2023-01-29T15:44:57.481Z,100791.40
2023-01-29T15:47:34.508Z,100787.80
2023-01-29T15:50:09.165Z,100784.60
2023-01-29T15:52:42.409Z,100785.20
2023-01-29T15:55:18.170Z,100783.00
2023-01-29T15:57:52.496Z,100787.00
2023-01-29T16:00:32.137Z,100782.60
2023-01-29T16:03:16.722Z,100789.40
2023-01-29T16:05:50.133Z,100794.40
2023-01-29T16:08:25.173Z,100787.00
2023-01-29T16:11:02.013Z,100786.80
2023-01-29T16:13:38.219Z,100777.80
2023-01-29T16:16:27.216Z,100785.20
2023-01-29T16:19:01.569Z,100781.00
2023-01-29T16:21:38.639Z,100781.80
2023-01-29T16:24:19.833Z,100780.40
2023-01-29T16:26:58.735Z,100769.00
2023-01-29T16:29:36.955Z,100763.20
2023-01-29T16:32:14.132Z,100765.60
2023-01-29T16:34:49.343Z,100766.20
2023-01-29T16:37:28.046Z,100770.40
2023-01-29T16:40:01.512Z,100768.40
2023-01-29T16:42:36.217Z,100767.40
2023-01-29T16:45:29.338Z,100762.80
2023-01-29T16:48:32.962Z,100765.20
2023-01-29T16:51:17.275Z,100763.80
2023-01-29T16:54:12.505Z,100768.40
2023-01-29T16:56:47.866Z,100772.80
2023-01-29T16:59:27.958Z,100766.80
2023-01-29T17:02:01.734Z,100748.60
2023-01-29T17:04:36.156Z,100744.80
2023-01-29T17:07:16.581Z,100744.20
2023-01-29T17:09:52.809Z,100742.20
2023-01-29T17:12:28.909Z,100739.00
2023-01-29T17:15:05.137Z,100739.60
2023-01-29T17:17:39.005Z,100738.60
2023-01-29T17:20:17.937Z,100735.00
2023-01-29T17:22:50.999Z,100730.00
2023-01-29T17:25:24.153Z,100726.80
2023-01-29T17:27:57.556Z,100733.60
2023-01-29T17:30:34.837Z,100724.20
2023-01-29T17:33:15.583Z,100723.80
2023-01-29T17:35:49.797Z,100712.40
2023-01-29T17:38:26.640Z,100720.80
2023-01-29T17:41:02.360Z,100723.80
2023-01-29T17:43:36.388Z,100721.40
2023-01-29T17:46:13.182Z,100723.80
2023-01-29T17:48:50.459Z,100722.40
2023-01-29T17:51:25.027Z,100720.20
2023-01-29T17:53:58.217Z,100709.40
2023-01-29T17:56:31.555Z,100712.40
2023-01-29T17:59:10.788Z,100704.80
2023-01-29T18:01:44.263Z,100697.80
2023-01-29T18:04:17.890Z,100688.00
2023-01-29T18:06:53.634Z,100689.00
2023-01-29T18:09:27.701Z,100687.60
2023-01-29T18:12:00.862Z,100679.80
2023-01-29T18:14:33.933Z,100681.40
2023-01-29T18:17:07.471Z,100679.20
2023-01-29T18:19:40.547Z,100679.60
2023-01-29T18:22:14.274Z,100685.20
2023-01-29T18:24:47.664Z,100672.40
2023-01-29T18:27:20.792Z,100672.20
2023-01-29T18:29:54.057Z,100667.20
2023-01-29T18:32:27.291Z,100667.60
2023-01-29T18:35:00.332Z,100664.20
2023-01-29T18:37:33.410Z,100667.60
2023-01-29T18:40:07.557Z,100661.60
2023-01-29T18:42:40.813Z,100652.60
2023-01-29T18:45:16.165Z,100653.20
2023-01-29T18:47:49.815Z,100654.60
2023-01-29T18:50:25.169Z,100647.60
2023-01-29T18:52:58.814Z,100641.60
2023-01-29T18:55:32.095Z,100637.00
2023-01-29T18:58:25.261Z,100638.80
2023-01-29T19:01:00.412Z,100634.00
2023-01-29T19:03:33.771Z,100635.60
2023-01-29T19:06:09.928Z,100639.40
2023-01-29T19:08:44.167Z,100633.00
2023-01-29T19:11:17.261Z,100630.60
2023-01-29T19:13:51.109Z,100625.80
2023-01-29T19:16:24.234Z,100627.80
2023-01-29T19:18:59.375Z,100631.60
2023-01-29T19:21:36.032Z,100630.80
2023-01-29T19:24:12.002Z,100630.00
2023-01-29T19:26:45.266Z,100626.00
2023-01-29T19:29:20.295Z,100631.40
2023-01-29T19:31:53.566Z,100627.20
2023-01-29T19:34:27.465Z,100618.40
2023-01-29T19:37:00.978Z,100617.40
2023-01-29T19:39:34.267Z,100614.20
2023-01-29T19:42:07.518Z,100611.20
2023-01-29T19:44:40.952Z,100609.80
2023-01-29T19:47:14.088Z,100602.00
2023-01-29T19:49:47.321Z,100601.40
2023-01-29T19:55:39.789Z,100582.40
2023-01-29T20:14:11.368Z,100560.00
2023-01-29T20:16:44.861Z,100561.60
2023-01-29T20:19:20.314Z,100561.40
2023-01-29T20:28:38.193Z,100558.00
2023-01-29T20:31:12.927Z,100554.60
2023-01-29T20:33:46.960Z,100556.60
2023-01-29T20:36:20.101Z,100554.80
2023-01-29T20:38:53.289Z,100546.80
2023-01-29T20:41:26.714Z,100545.60
2023-01-29T20:43:59.848Z,100546.40
2023-01-29T21:00:02.631Z,100532.00
2023-01-29T21:02:36.101Z,100531.00
2023-01-29T21:05:10.394Z,100532.40
2023-01-29T21:07:43.869Z,100524.60
2023-01-29T21:10:18.089Z,100521.60
2023-01-29T21:12:51.274Z,100523.20
2023-01-29T21:15:27.458Z,100522.40
2023-01-29T21:18:04.513Z,100512.40
2023-01-29T21:20:37.632Z,100512.80
2023-01-29T21:23:10.827Z,100504.60
2023-01-29T21:25:44.893Z,100498.60
2023-01-29T21:28:18.333Z,100499.00
2023-01-29T21:30:51.373Z,100501.20
2023-01-29T21:33:24.602Z,100497.00
2023-01-29T21:36:03.723Z,100492.00
2023-01-29T21:38:36.971Z,100490.60
2023-01-29T21:41:11.292Z,100486.40
2023-01-29T21:43:45.948Z,100493.00
2023-01-29T21:46:19.081Z,100489.80
2023-01-29T21:48:52.147Z,100486.40
2023-01-29T21:51:25.256Z,100488.60
2023-01-29T21:53:58.325Z,100489.20
2023-01-29T21:56:31.376Z,100482.40
2023-01-29T21:59:04.398Z,100472.40
2023-01-29T22:01:38.879Z,100470.80
2023-01-29T22:04:12.098Z,100454.40
2023-01-29T22:06:45.138Z,100447.00
2023-01-29T22:09:18.703Z,100448.60
2023-01-29T22:11:51.853Z,100451.00
2023-01-29T22:14:24.843Z,100442.80
2023-01-29T22:16:57.900Z,100437.00
2023-01-29T22:19:30.918Z,100446.20
2023-01-29T22:22:04.340Z,100438.00
2023-01-29T22:24:37.424Z,100435.80
2023-01-29T22:27:11.015Z,100428.20
2023-01-29T22:29:44.104Z,100421.80
2023-01-29T22:32:17.229Z,100419.20
2023-01-29T22:34:50.335Z,100413.80
2023-01-29T22:37:23.342Z,100410.60
2023-01-29T22:39:56.432Z,100405.40
2023-01-29T22:42:29.463Z,100399.20
2023-01-29T22:45:02.515Z,100387.80
2023-01-29T22:47:36.532Z,100382.00
2023-01-29T22:50:13.777Z,100366.80
2023-01-29T22:52:53.750Z,100357.80
2023-01-29T22:55:27.008Z,100355.20
2023-01-29T22:58:00.010Z,100355.20
2023-01-29T23:00:33.004Z,100350.60
2023-01-29T23:03:06.267Z,100343.40
2023-01-29T23:05:39.247Z,100342.80
2023-01-29T23:08:12.740Z,100327.40
2023-01-29T23:10:45.768Z,100318.20
2023-01-29T23:13:18.954Z,100310.80
2023-01-29T23:16:00.927Z,100308.20
2023-01-29T23:18:33.906Z,100306.00
2023-01-29T23:21:07.664Z,100303.80
2023-01-29T23:23:43.615Z,100293.60
2023-01-29T23:26:35.634Z,100287.00
2023-01-29T23:29:08.754Z,100285.60
2023-01-29T23:31:41.949Z,100275.00
2023-01-29T23:34:15.342Z,100275.00
2023-01-29T23:36:48.420Z,100271.80
2023-01-29T23:39:21.727Z,100268.60
2023-01-29T23:41:54.757Z,100257.00
2023-01-29T23:44:27.762Z,100250.80
2023-01-29T23:47:00.780Z,100243.00
2023-01-29T23:49:33.840Z,100236.20
2023-01-29T23:52:07.058Z,100230.20
2023-01-29T23:54:40.058Z,100223.20
2023-01-29T23:57:13.350Z,100212.40
2023-01-29T23:59:46.368Z,100210.00
